createdAt,value
2019-03-27T00:00:33.392Z,0.95
2019-03-27T00:03:02.377Z,0.80
2019-03-27T00:05:30.478Z,0.80
2019-03-27T00:07:58.548Z,0.95
2019-03-27T00:10:26.651Z,0.60
2019-03-27T00:12:54.747Z,0.70
2019-03-27T00:15:23.963Z,0.70
2019-03-27T00:17:52.106Z,0.72
2019-03-27T00:20:21.098Z,0.60
2019-03-27T00:22:49.611Z,0.80
2019-03-27T00:25:17.823Z,0.50
2019-03-27T00:27:45.985Z,0.60
2019-03-27T00:30:14.356Z,0.90
2019-03-27T00:32:42.418Z,0.90
2019-03-27T00:35:10.687Z,0.88
2019-03-27T00:37:38.849Z,0.80
2019-03-27T00:40:07.729Z,0.40
2019-03-27T00:42:36.104Z,0.47
2019-03-27T00:45:05.857Z,0.40
2019-03-27T00:47:34.287Z,0.30
2019-03-27T00:50:02.464Z,0.50
2019-03-27T00:52:30.870Z,0.60
2019-03-27T00:54:58.929Z,0.42
2019-03-27T00:57:27.026Z,0.40
2019-03-27T00:59:56.186Z,0.20
2019-03-27T01:02:24.312Z,0.30
2019-03-27T01:04:52.768Z,0.30
2019-03-27T01:07:21.011Z,0.40
2019-03-27T01:09:50.160Z,0.30
2019-03-27T01:12:18.263Z,0.40
2019-03-27T01:14:47.517Z,0.30
2019-03-27T01:17:16.685Z,0.40
2019-03-27T01:19:46.058Z,0.57
2019-03-27T01:22:14.125Z,0.33
2019-03-27T01:24:42.287Z,0.20
2019-03-27T01:27:10.349Z,0.30
2019-03-27T01:29:38.483Z,0.30
2019-03-27T01:32:06.602Z,0.40
2019-03-27T01:34:34.750Z,0.40
2019-03-27T01:37:02.817Z,0.50
2019-03-27T01:39:31.034Z,0.70
2019-03-27T01:41:59.190Z,0.90
2019-03-27T01:44:27.324Z,1.12
2019-03-27T01:46:55.420Z,0.70
2019-03-27T01:49:23.506Z,0.50
2019-03-27T01:51:51.728Z,0.50
2019-03-27T01:54:19.797Z,0.50
2019-03-27T01:56:47.881Z,0.70
2019-03-27T01:59:15.942Z,0.70
2019-03-27T02:01:44.035Z,0.90
2019-03-27T02:04:12.101Z,0.70
2019-03-27T02:06:40.193Z,0.60
2019-03-27T02:09:08.367Z,0.70
2019-03-27T02:11:36.611Z,0.80
2019-03-27T02:14:05.143Z,0.75
2019-03-27T02:16:33.281Z,0.68
2019-03-27T02:19:01.381Z,0.80
2019-03-27T02:21:29.549Z,1.05
2019-03-27T02:23:58.003Z,0.95
2019-03-27T02:26:26.162Z,0.90
2019-03-27T02:28:54.330Z,0.98
2019-03-27T02:31:22.421Z,0.88
2019-03-27T02:33:50.493Z,1.10
2019-03-27T02:36:18.668Z,0.75
2019-03-27T02:38:46.966Z,0.60
2019-03-27T02:41:15.119Z,0.75
2019-03-27T02:43:43.255Z,0.82
2019-03-27T02:46:23.594Z,0.80
2019-03-27T02:48:41.223Z,0.98
2019-03-27T02:51:09.298Z,1.00
2019-03-27T02:53:37.413Z,1.00
2019-03-27T02:56:05.540Z,1.00
2019-03-27T02:58:33.603Z,0.80
2019-03-27T03:01:01.766Z,0.80
2019-03-27T03:03:29.967Z,0.90
2019-03-27T03:05:58.135Z,0.90
2019-03-27T03:08:26.205Z,0.90
2019-03-27T03:10:54.301Z,0.75
2019-03-27T03:13:22.407Z,0.93
2019-03-27T03:15:50.646Z,0.90
2019-03-27T03:18:18.721Z,1.22
2019-03-27T03:20:47.163Z,0.98
2019-03-27T03:23:15.293Z,0.80
2019-03-27T03:25:43.377Z,0.85
2019-03-27T03:28:11.539Z,1.10
2019-03-27T03:30:39.585Z,1.20
2019-03-27T03:33:07.688Z,0.85
2019-03-27T03:35:35.807Z,0.78
2019-03-27T03:38:03.952Z,1.00
2019-03-27T03:40:32.297Z,1.30
2019-03-27T03:43:00.370Z,1.10
2019-03-27T03:45:28.472Z,1.15
2019-03-27T03:47:56.578Z,1.57
2019-03-27T03:50:35.016Z,1.10
2019-03-27T03:53:03.169Z,1.00
2019-03-27T03:55:33.925Z,1.20
2019-03-27T04:00:29.736Z,1.30
2019-03-27T04:02:57.900Z,1.10
2019-03-27T04:05:26.039Z,1.35
2019-03-27T04:07:54.119Z,1.27
2019-03-27T04:10:22.180Z,2.20
2019-03-27T04:12:50.276Z,1.82
2019-03-27T04:15:18.357Z,1.60
2019-03-27T04:17:46.937Z,2.52
2019-03-27T04:20:15.032Z,1.80
2019-03-27T04:22:43.102Z,1.60
2019-03-27T04:25:11.412Z,2.25
2019-03-27T04:27:39.825Z,1.27
2019-03-27T04:30:08.459Z,2.42
2019-03-27T04:32:36.597Z,2.50
2019-03-27T04:35:06.226Z,2.80
2019-03-27T04:37:34.289Z,1.90
2019-03-27T04:40:02.652Z,2.70
2019-03-27T04:42:30.720Z,2.40
2019-03-27T04:44:58.778Z,1.70
2019-03-27T04:47:32.293Z,1.65
2019-03-27T04:49:56.594Z,1.70
2019-03-27T04:52:24.692Z,1.65
2019-03-27T04:54:53.122Z,1.92
2019-03-27T04:57:21.222Z,1.30
2019-03-27T04:59:50.772Z,1.62
2019-03-27T05:02:18.857Z,1.65
2019-03-27T05:04:47.142Z,1.80
2019-03-27T05:07:15.251Z,1.70
2019-03-27T05:09:43.309Z,1.70
2019-03-27T05:12:11.389Z,1.37
2019-03-27T05:14:40.536Z,1.37
2019-03-27T05:17:08.623Z,2.42
2019-03-27T05:19:37.189Z,1.98
2019-03-27T05:22:05.285Z,2.60
2019-03-27T05:24:33.351Z,1.72
2019-03-27T05:27:01.488Z,1.60
2019-03-27T05:29:30.038Z,2.30
2019-03-27T05:31:58.095Z,1.37
2019-03-27T05:34:27.133Z,1.90
2019-03-27T05:36:55.240Z,2.00
2019-03-27T05:39:23.307Z,2.12
2019-03-27T05:41:51.413Z,2.30
2019-03-27T05:44:19.583Z,2.30
2019-03-27T05:46:47.709Z,1.77
2019-03-27T05:49:15.829Z,2.30
2019-03-27T05:51:43.948Z,2.20
2019-03-27T05:54:13.085Z,2.30
2019-03-27T05:56:41.232Z,2.08
2019-03-27T05:59:09.295Z,2.30
2019-03-27T06:01:37.354Z,2.20
2019-03-27T06:04:05.498Z,2.70
2019-03-27T06:06:33.562Z,3.17
2019-03-27T06:09:02.871Z,2.83
2019-03-27T06:11:30.950Z,2.00
2019-03-27T06:13:59.125Z,2.05
2019-03-27T06:16:27.799Z,3.00
2019-03-27T06:18:56.847Z,2.92
2019-03-27T06:21:25.013Z,2.50
2019-03-27T06:23:53.143Z,2.50
2019-03-27T06:26:21.623Z,2.65
2019-03-27T06:28:49.747Z,2.27
2019-03-27T06:31:17.950Z,2.70
2019-03-27T06:33:46.040Z,3.67
2019-03-27T06:36:14.121Z,2.10
2019-03-27T06:38:42.816Z,2.95
2019-03-27T06:41:10.954Z,3.10
2019-03-27T06:43:42.631Z,2.40
2019-03-27T06:46:13.077Z,2.83
2019-03-27T06:48:43.733Z,1.85
2019-03-27T06:51:13.752Z,2.27
2019-03-27T06:53:41.875Z,2.40
2019-03-27T06:56:10.017Z,3.37
2019-03-27T06:58:38.137Z,1.92
2019-03-27T07:01:06.299Z,2.58
2019-03-27T07:03:34.459Z,2.72
2019-03-27T07:06:02.701Z,2.65
2019-03-27T07:08:30.831Z,2.52
2019-03-27T07:10:59.218Z,3.10
2019-03-27T07:13:27.410Z,2.87
2019-03-27T07:15:55.641Z,2.75
2019-03-27T07:18:23.783Z,2.45
2019-03-27T07:20:52.064Z,2.20
2019-03-27T07:23:21.264Z,2.08
2019-03-27T07:25:51.072Z,2.25
2019-03-27T07:28:19.782Z,2.60
2019-03-27T07:30:47.977Z,2.17
2019-03-27T07:33:17.151Z,2.00
2019-03-27T07:35:45.265Z,2.10
2019-03-27T07:38:13.401Z,3.25
2019-03-27T07:40:41.520Z,2.80
2019-03-27T07:43:09.724Z,2.72
2019-03-27T07:45:37.861Z,2.77
2019-03-27T07:48:05.951Z,2.08
2019-03-27T07:50:34.054Z,2.00
2019-03-27T07:53:02.183Z,3.00
2019-03-27T07:55:30.424Z,3.85
2019-03-27T07:57:58.616Z,2.98
2019-03-27T08:00:26.733Z,2.90
2019-03-27T08:02:54.908Z,3.87
2019-03-27T08:05:23.037Z,1.47
2019-03-27T08:07:51.217Z,2.00
2019-03-27T08:10:19.389Z,2.70
2019-03-27T08:12:47.558Z,2.98
2019-03-27T08:15:15.983Z,2.98
2019-03-27T08:17:44.145Z,2.33
2019-03-27T08:20:12.419Z,2.90
2019-03-27T08:22:40.568Z,2.70
2019-03-27T08:25:09.001Z,3.45
2019-03-27T08:27:37.070Z,2.95
2019-03-27T08:30:06.710Z,3.12
2019-03-27T08:32:37.511Z,4.40
2019-03-27T08:35:07.704Z,3.30
2019-03-27T08:37:36.128Z,2.90
2019-03-27T08:40:07.707Z,3.30
2019-03-27T08:42:36.172Z,2.90
2019-03-27T08:45:06.225Z,2.90
2019-03-27T08:47:35.439Z,2.70
2019-03-27T08:50:05.010Z,2.52
2019-03-27T08:52:33.189Z,2.40
2019-03-27T08:55:01.821Z,2.10
2019-03-27T08:57:29.951Z,2.50
2019-03-27T08:59:58.023Z,1.52
2019-03-27T09:02:26.100Z,3.00
2019-03-27T09:04:54.180Z,2.47
2019-03-27T09:07:22.260Z,2.60
2019-03-27T09:09:50.312Z,2.52
2019-03-27T09:12:18.408Z,2.67
2019-03-27T09:14:47.134Z,2.70
2019-03-27T09:17:15.254Z,3.40
2019-03-27T09:19:43.478Z,3.37
2019-03-27T09:22:11.936Z,3.60
2019-03-27T09:24:40.030Z,2.95
2019-03-27T09:27:08.093Z,2.58
2019-03-27T09:29:36.243Z,2.37
2019-03-27T09:32:04.425Z,1.87
2019-03-27T09:34:32.518Z,2.55
2019-03-27T09:37:00.608Z,2.25
2019-03-27T09:39:28.791Z,2.52
2019-03-27T09:41:57.072Z,2.72
2019-03-27T09:44:25.379Z,2.77
2019-03-27T09:46:53.476Z,2.47
2019-03-27T09:49:21.639Z,2.30
2019-03-27T09:51:49.722Z,2.15
2019-03-27T09:54:17.899Z,1.90
2019-03-27T09:56:46.053Z,2.00
2019-03-27T09:59:15.225Z,2.22
2019-03-27T10:01:43.323Z,2.05
2019-03-27T10:04:11.577Z,1.90
2019-03-27T10:06:39.745Z,1.98
2019-03-27T10:09:07.968Z,2.05
2019-03-27T10:11:37.488Z,1.80
2019-03-27T10:14:05.772Z,2.02
2019-03-27T10:16:33.884Z,1.75
2019-03-27T10:19:02.048Z,1.62
2019-03-27T10:21:30.200Z,1.90
2019-03-27T10:23:58.298Z,1.80
2019-03-27T10:26:26.397Z,1.65
2019-03-27T10:28:54.536Z,1.62
2019-03-27T10:31:22.689Z,1.40
2019-03-27T10:33:50.923Z,1.82
2019-03-27T10:36:19.101Z,1.90
2019-03-27T10:38:47.269Z,2.45
2019-03-27T10:41:15.415Z,2.00
2019-03-27T10:43:43.516Z,2.17
2019-03-27T10:46:11.580Z,1.57
2019-03-27T10:48:51.747Z,1.70
2019-03-27T10:51:09.458Z,1.40
2019-03-27T10:53:37.529Z,1.70
2019-03-27T10:56:05.607Z,1.57
2019-03-27T10:58:33.825Z,1.62
2019-03-27T11:01:02.920Z,2.10
2019-03-27T11:03:32.088Z,1.80
2019-03-27T11:06:00.327Z,2.00
2019-03-27T11:08:28.440Z,2.12
2019-03-27T11:10:56.501Z,2.08
2019-03-27T11:13:24.583Z,2.08
2019-03-27T11:15:53.007Z,2.33
2019-03-27T11:18:21.174Z,2.85
2019-03-27T11:20:49.309Z,2.60
2019-03-27T11:23:17.518Z,2.17
2019-03-27T11:25:45.684Z,2.02
2019-03-27T11:28:13.822Z,2.20
2019-03-27T11:30:42.411Z,1.90
2019-03-27T11:33:10.738Z,1.55
2019-03-27T11:35:38.942Z,1.62
2019-03-27T11:38:07.037Z,1.10
2019-03-27T11:40:35.352Z,1.45
2019-03-27T11:43:03.901Z,1.52
2019-03-27T11:45:32.050Z,1.45
2019-03-27T11:48:00.161Z,1.30
2019-03-27T11:50:28.324Z,1.30
2019-03-27T11:52:56.501Z,2.42
2019-03-27T11:55:24.604Z,1.87
2019-03-27T11:57:52.750Z,1.98
2019-03-27T12:00:20.906Z,1.25
2019-03-27T12:02:49.118Z,1.60
2019-03-27T12:05:17.379Z,1.98
2019-03-27T12:07:46.220Z,1.70
2019-03-27T12:10:14.544Z,2.20
2019-03-27T12:12:42.737Z,1.62
2019-03-27T12:15:11.300Z,1.52
2019-03-27T12:17:39.525Z,1.60
2019-03-27T12:20:08.645Z,1.82
2019-03-27T12:22:36.721Z,1.20
2019-03-27T12:25:05.834Z,0.80
2019-03-27T12:27:33.965Z,1.85
2019-03-27T12:30:10.513Z,1.65
2019-03-27T12:32:38.747Z,1.52
2019-03-27T12:35:06.843Z,1.52
2019-03-27T12:37:34.985Z,1.55
2019-03-27T12:40:11.427Z,2.00
2019-03-27T12:42:34.046Z,1.60
2019-03-27T12:45:02.485Z,1.45
2019-03-27T12:47:30.693Z,1.70
2019-03-27T12:49:59.154Z,1.50
2019-03-27T12:52:27.285Z,1.42
2019-03-27T12:54:55.401Z,1.50
2019-03-27T12:57:24.551Z,1.50
2019-03-27T12:59:52.665Z,2.00
2019-03-27T13:02:20.811Z,1.45
2019-03-27T13:04:49.009Z,1.17
2019-03-27T13:07:18.118Z,1.60
2019-03-27T13:09:46.191Z,1.72
2019-03-27T13:12:14.274Z,1.70
2019-03-27T13:14:42.422Z,1.60
2019-03-27T13:17:10.502Z,1.25
2019-03-27T13:19:38.645Z,1.00
2019-03-27T13:22:06.809Z,1.00
2019-03-27T13:24:34.911Z,1.10
2019-03-27T13:27:03.291Z,1.17
2019-03-27T13:29:31.393Z,1.17
2019-03-27T13:31:59.608Z,1.00
2019-03-27T13:34:27.739Z,1.00
2019-03-27T13:36:55.816Z,1.00
2019-03-27T13:39:23.883Z,1.20
2019-03-27T13:41:52.027Z,1.17
2019-03-27T13:44:20.093Z,1.30
2019-03-27T13:46:48.215Z,1.10
2019-03-27T13:49:17.618Z,1.65
2019-03-27T13:51:46.080Z,1.62
2019-03-27T13:54:14.199Z,1.35
2019-03-27T13:56:42.270Z,1.27
2019-03-27T13:59:10.361Z,1.00
2019-03-27T14:01:38.524Z,0.95
2019-03-27T14:04:06.600Z,1.50
2019-03-27T14:06:34.757Z,1.20
2019-03-27T14:09:03.451Z,1.20
2019-03-27T14:11:32.867Z,1.10
2019-03-27T14:14:10.764Z,0.70
2019-03-27T14:16:30.764Z,0.80
2019-03-27T14:18:59.268Z,1.10
2019-03-27T14:21:27.872Z,1.00
2019-03-27T14:23:55.948Z,0.80
2019-03-27T14:26:24.031Z,0.90
2019-03-27T14:28:52.198Z,0.70
2019-03-27T14:31:20.274Z,0.90
2019-03-27T14:33:48.482Z,0.80
2019-03-27T14:36:16.722Z,0.82
2019-03-27T14:38:44.789Z,0.45
2019-03-27T14:41:12.862Z,0.82
2019-03-27T14:43:40.951Z,1.00
2019-03-27T14:46:09.105Z,0.90
2019-03-27T14:48:37.319Z,0.60
2019-03-27T14:51:05.439Z,1.02
2019-03-27T14:53:33.881Z,1.00
2019-03-27T14:56:02.041Z,0.88
2019-03-27T14:58:30.159Z,1.50
2019-03-27T15:00:59.275Z,0.90
2019-03-27T15:03:27.380Z,1.30
2019-03-27T15:05:55.515Z,1.52
2019-03-27T15:08:23.630Z,1.60
2019-03-27T15:10:51.762Z,1.40
2019-03-27T15:13:19.831Z,1.32
2019-03-27T15:15:47.934Z,1.17
2019-03-27T15:18:16.088Z,1.40
2019-03-27T15:20:44.166Z,1.45
2019-03-27T15:23:13.414Z,1.20
2019-03-27T15:25:41.554Z,1.12
2019-03-27T15:28:09.727Z,1.30
2019-03-27T15:30:37.817Z,1.27
2019-03-27T15:33:05.989Z,1.50
2019-03-27T15:35:34.095Z,1.05
2019-03-27T15:38:03.466Z,0.90
2019-03-27T15:40:38.316Z,0.95
2019-03-27T15:43:06.428Z,0.70
2019-03-27T15:45:34.501Z,0.82
2019-03-27T15:48:02.998Z,0.80
2019-03-27T15:50:32.220Z,1.00
2019-03-27T15:53:00.404Z,1.50
2019-03-27T15:55:28.568Z,1.15
2019-03-27T15:57:56.999Z,1.50
2019-03-27T16:00:25.273Z,1.70
2019-03-27T16:02:53.425Z,1.65
2019-03-27T16:05:21.571Z,1.60
2019-03-27T16:07:49.648Z,1.77
2019-03-27T16:10:18.534Z,2.00
2019-03-27T16:12:46.857Z,1.55
2019-03-27T16:15:15.078Z,1.50
2019-03-27T16:17:43.211Z,1.42
2019-03-27T16:20:11.355Z,1.90
2019-03-27T16:22:49.853Z,1.65
2019-03-27T16:25:09.357Z,1.30
2019-03-27T16:27:37.510Z,1.70
2019-03-27T16:30:07.077Z,1.80
2019-03-27T16:32:35.245Z,1.90
2019-03-27T16:35:04.473Z,1.92
2019-03-27T16:37:32.605Z,2.20
2019-03-27T16:40:00.703Z,2.10
2019-03-27T16:42:28.771Z,2.12
2019-03-27T16:44:56.871Z,1.60
2019-03-27T16:47:25.156Z,2.25
2019-03-27T16:49:53.261Z,1.90
2019-03-27T16:52:21.407Z,1.92
2019-03-27T16:54:49.506Z,1.47
2019-03-27T16:57:17.684Z,1.22
2019-03-27T16:59:46.106Z,1.60
2019-03-27T17:02:14.206Z,1.70
2019-03-27T17:04:42.364Z,1.30
2019-03-27T17:07:10.452Z,1.22
2019-03-27T17:09:38.570Z,1.40
2019-03-27T17:12:07.183Z,1.17
2019-03-27T17:14:35.377Z,1.70
2019-03-27T17:17:03.652Z,2.00
2019-03-27T17:19:31.965Z,1.47
2019-03-27T17:22:00.143Z,1.30
2019-03-27T17:24:28.758Z,1.55
2019-03-27T17:26:57.060Z,1.47
2019-03-27T17:29:25.355Z,2.00
2019-03-27T17:31:53.478Z,1.30
2019-03-27T17:34:22.054Z,1.55
2019-03-27T17:36:50.282Z,1.27
2019-03-27T17:39:18.443Z,1.57
2019-03-27T17:41:46.576Z,1.50
2019-03-27T17:44:14.703Z,1.77
2019-03-27T17:46:42.830Z,1.90
2019-03-27T17:49:10.996Z,1.80
2019-03-27T17:51:39.171Z,1.35
2019-03-27T17:54:19.896Z,1.20
2019-03-27T17:56:40.767Z,0.90
2019-03-27T17:59:08.921Z,1.05
2019-03-27T18:01:37.349Z,1.00
2019-03-27T18:04:06.116Z,1.25
2019-03-27T18:06:35.327Z,1.30
2019-03-27T18:09:04.645Z,1.05
2019-03-27T18:11:32.841Z,1.12
2019-03-27T18:14:01.104Z,1.10
2019-03-27T18:16:29.262Z,1.12
2019-03-27T18:18:57.395Z,1.30
2019-03-27T18:21:25.725Z,1.15
2019-03-27T18:23:53.904Z,1.10
2019-03-27T18:26:23.406Z,0.93
2019-03-27T18:28:51.586Z,1.10
2019-03-27T18:31:19.799Z,1.10
2019-03-27T18:33:47.889Z,0.80
2019-03-27T18:36:16.009Z,1.00
2019-03-27T18:38:46.024Z,1.05
2019-03-27T18:41:16.250Z,1.10
2019-03-27T18:43:44.681Z,0.95
2019-03-27T18:46:12.812Z,1.20
2019-03-27T18:48:40.918Z,0.70
2019-03-27T18:51:09.158Z,1.25
2019-03-27T18:53:37.262Z,0.80
2019-03-27T18:56:05.424Z,1.10
2019-03-27T18:58:33.682Z,1.00
2019-03-27T19:01:01.903Z,1.00
2019-03-27T19:03:30.077Z,0.90
2019-03-27T19:05:58.233Z,0.70
2019-03-27T19:08:26.526Z,0.78
2019-03-27T19:10:54.685Z,0.68
2019-03-27T19:13:23.888Z,0.80
2019-03-27T19:15:52.097Z,0.57
2019-03-27T19:18:20.226Z,0.57
2019-03-27T19:20:48.323Z,0.60
2019-03-27T19:23:16.375Z,0.42
2019-03-27T19:25:44.504Z,0.53
2019-03-27T19:28:12.644Z,0.45
2019-03-27T19:30:41.134Z,0.50
2019-03-27T19:33:09.197Z,0.40
2019-03-27T19:35:39.273Z,0.53
2019-03-27T19:38:07.181Z,0.50
2019-03-27T19:40:35.358Z,0.53
2019-03-27T19:43:03.785Z,0.60
2019-03-27T19:45:31.968Z,0.60
2019-03-27T19:48:00.110Z,0.60
2019-03-27T19:50:28.277Z,0.60
2019-03-27T19:52:56.365Z,0.57
2019-03-27T19:55:24.453Z,0.60
2019-03-27T19:57:52.591Z,0.42
2019-03-27T20:00:21.453Z,0.40
2019-03-27T20:02:49.664Z,0.40
2019-03-27T20:05:17.802Z,0.37
2019-03-27T20:07:45.890Z,0.60
2019-03-27T20:10:14.109Z,0.50
2019-03-27T20:12:42.245Z,0.47
2019-03-27T20:15:12.842Z,0.62
2019-03-27T20:17:40.627Z,1.17
2019-03-27T20:20:09.161Z,0.80
2019-03-27T20:22:37.406Z,0.95
2019-03-27T20:25:06.735Z,1.17
2019-03-27T20:27:34.894Z,0.88
2019-03-27T20:30:04.989Z,0.85
2019-03-27T20:32:34.318Z,0.75
2019-03-27T20:35:02.399Z,0.50
2019-03-27T20:37:30.656Z,0.62
2019-03-27T20:39:58.743Z,0.60
2019-03-27T20:42:26.889Z,0.42
2019-03-27T20:44:55.077Z,0.57
2019-03-27T20:47:23.170Z,0.60
2019-03-27T20:49:51.582Z,0.93
2019-03-27T20:52:19.804Z,1.32
2019-03-27T20:54:55.028Z,1.77
2019-03-27T20:57:17.982Z,1.57
2019-03-27T20:59:46.069Z,1.98
2019-03-27T21:02:14.805Z,1.70
2019-03-27T21:04:43.002Z,1.35
2019-03-27T21:07:12.186Z,1.10
2019-03-27T21:09:40.710Z,1.80
2019-03-27T21:12:09.293Z,1.50
2019-03-27T21:14:37.532Z,1.72
2019-03-27T21:17:05.681Z,1.67
2019-03-27T21:19:36.161Z,1.50
2019-03-27T21:22:03.533Z,1.50
2019-03-27T21:24:31.670Z,1.80
2019-03-27T21:26:59.789Z,1.50
2019-03-27T21:29:27.932Z,1.50
2019-03-27T21:31:57.123Z,1.92
2019-03-27T21:34:25.225Z,2.12
2019-03-27T21:36:53.442Z,1.92
2019-03-27T21:39:21.607Z,1.65
2019-03-27T21:41:50.616Z,1.80
2019-03-27T21:44:18.981Z,1.55
2019-03-27T21:46:47.195Z,2.08
2019-03-27T21:49:15.328Z,1.92
2019-03-27T21:51:43.721Z,1.90
2019-03-27T21:54:11.913Z,2.90
2019-03-27T21:56:40.115Z,2.30
2019-03-27T21:59:08.291Z,1.92
2019-03-27T22:01:36.464Z,1.67
2019-03-27T22:04:04.637Z,1.50
2019-03-27T22:06:33.133Z,1.30
2019-03-27T22:09:01.405Z,1.82
2019-03-27T22:11:31.209Z,1.70
2019-03-27T22:13:59.415Z,1.50
2019-03-27T22:16:27.572Z,1.50
2019-03-27T22:18:56.303Z,1.40
2019-03-27T22:21:24.456Z,1.70
2019-03-27T22:23:52.566Z,1.70
2019-03-27T22:26:20.764Z,1.30
2019-03-27T22:28:48.951Z,1.55
2019-03-27T22:31:17.181Z,1.60
2019-03-27T22:33:45.377Z,1.67
2019-03-27T22:36:13.562Z,1.57
2019-03-27T22:38:41.740Z,1.40
2019-03-27T22:41:09.882Z,2.30
2019-03-27T22:43:38.173Z,1.85
2019-03-27T22:46:06.343Z,2.20
2019-03-27T22:48:34.540Z,2.00
2019-03-27T22:51:02.746Z,1.92
2019-03-27T22:53:30.896Z,2.05
2019-03-27T22:55:58.979Z,2.60
2019-03-27T22:58:28.478Z,2.15
2019-03-27T23:00:59.250Z,1.80
2019-03-27T23:03:27.501Z,1.60
2019-03-27T23:05:55.620Z,1.80
2019-03-27T23:08:23.802Z,1.60
2019-03-27T23:10:52.000Z,1.65
2019-03-27T23:13:20.156Z,2.35
2019-03-27T23:15:48.515Z,1.80
2019-03-27T23:18:18.387Z,2.50
2019-03-27T23:20:46.593Z,1.93
2019-03-27T23:23:16.235Z,2.08
2019-03-27T23:25:44.511Z,2.08
2019-03-27T23:28:12.697Z,2.40
2019-03-27T23:30:40.962Z,2.00
2019-03-27T23:33:11.175Z,2.22
2019-03-27T23:35:40.519Z,2.70
2019-03-27T23:38:08.761Z,2.60
2019-03-27T23:40:36.966Z,2.20
2019-03-27T23:43:05.186Z,2.30
2019-03-27T23:45:33.409Z,2.10
2019-03-27T23:48:01.576Z,2.40
2019-03-27T23:50:29.702Z,2.95
2019-03-27T23:52:57.889Z,2.30
2019-03-27T23:55:26.000Z,2.10
2019-03-27T23:57:54.880Z,2.77
